Ben Arnold, Texas
Current Conditions -  °F | °C
As of 12:15 AM on Sunday 26 Oct 2014 (Local Time) from KT35 Reporting Station
Clear Clear  
Wind Chill: 69°   Ceiling: Unl
Heat Index: 69°   Visibility: 10mi
Dew Point: 61°   Wind: 8mph
Humidity: 75%   Direction: 180°S
Pressure: 30.08"   Gusts: NA
Location:  30.9882°N, 97.103°W
Report Text: KT35 260515Z AUTO 18007KT 10SM CLR 21/16 A3008 RMK AO2 T02050160
Loading
Personal Weather Stations






























Interactive Weather Map New forecast layout! Learn more

10-Day Weather Forecast

Advertisements
Track Severe Weather on mobile